createdAt,value
2023-03-25T00:01:51.021Z,9.43
2023-03-25T00:04:18.717Z,10.00
2023-03-25T00:06:46.404Z,9.00
2023-03-25T00:09:14.089Z,8.90
2023-03-25T00:11:41.746Z,8.97
2023-03-25T00:14:09.799Z,9.07
2023-03-25T00:16:37.850Z,8.90
2023-03-25T00:19:06.949Z,9.13
2023-03-25T00:21:34.596Z,8.63
2023-03-25T00:24:03.234Z,8.80
2023-03-25T00:26:32.261Z,9.13
2023-03-25T00:28:59.885Z,9.37
2023-03-25T00:31:27.543Z,9.20
2023-03-25T00:33:55.195Z,9.47
2023-03-25T00:36:24.579Z,8.63
2023-03-25T00:38:52.422Z,8.90
2023-03-25T00:41:22.981Z,8.63
2023-03-25T00:43:52.527Z,9.47
2023-03-25T00:46:20.802Z,8.43
2023-03-25T00:48:48.529Z,7.43
2023-03-25T00:51:21.558Z,8.60
2023-03-25T00:53:53.284Z,7.70
2023-03-25T00:56:21.051Z,8.10
2023-03-25T00:58:48.673Z,8.33
2023-03-25T01:01:18.127Z,8.37
2023-03-25T01:03:46.123Z,8.23
2023-03-25T01:06:14.811Z,7.80
2023-03-25T01:08:43.106Z,7.70
2023-03-25T01:11:18.881Z,8.80
2023-03-25T01:13:46.703Z,9.97
2023-03-25T01:16:14.460Z,9.37
2023-03-25T01:18:42.699Z,9.30
2023-03-25T01:21:10.448Z,9.73
2023-03-25T01:23:38.084Z,9.43
2023-03-25T01:26:05.954Z,9.87
2023-03-25T01:28:34.960Z,10.10
2023-03-25T01:31:03.215Z,10.20
2023-03-25T01:33:31.048Z,11.07
2023-03-25T01:35:58.714Z,9.73
2023-03-25T01:38:27.184Z,9.83
2023-03-25T01:40:55.330Z,10.30
2023-03-25T01:43:23.668Z,10.73
2023-03-25T01:45:52.949Z,10.67
2023-03-25T01:48:22.880Z,11.17
2023-03-25T01:50:53.526Z,11.77
2023-03-25T01:53:21.292Z,10.77
2023-03-25T01:55:50.413Z,10.97
2023-03-25T01:58:19.141Z,10.70
2023-03-25T02:00:47.938Z,10.77
2023-03-25T02:03:18.226Z,11.20
2023-03-25T02:05:48.776Z,10.83
2023-03-25T02:08:17.027Z,10.60
2023-03-25T02:10:46.847Z,11.07
2023-03-25T02:13:15.578Z,11.40
2023-03-25T02:15:52.793Z,11.27
2023-03-25T02:18:27.647Z,11.60
2023-03-25T02:21:09.265Z,10.77
2023-03-25T02:23:58.409Z,10.20
2023-03-25T02:26:42.580Z,10.40
2023-03-25T02:29:13.627Z,10.53
2023-03-25T02:31:49.842Z,10.00
2023-03-25T02:34:36.007Z,10.27
2023-03-25T02:37:14.517Z,10.53
2023-03-25T02:39:44.151Z,10.43
2023-03-25T02:42:16.647Z,10.27
2023-03-25T02:44:48.936Z,10.87
2023-03-25T02:47:18.457Z,10.43
2023-03-25T02:49:47.754Z,9.77
2023-03-25T02:52:16.705Z,9.77
2023-03-25T02:54:47.606Z,9.90
2023-03-25T02:57:16.905Z,10.43
2023-03-25T02:59:46.187Z,9.63
2023-03-25T03:02:14.938Z,10.43
2023-03-25T03:04:46.856Z,10.33
2023-03-25T03:07:18.547Z,11.20
2023-03-25T03:09:50.446Z,11.20
2023-03-25T03:12:26.982Z,11.80
2023-03-25T03:15:00.830Z,9.93
2023-03-25T03:17:31.995Z,10.90
2023-03-25T03:20:02.118Z,11.13
2023-03-25T03:22:36.134Z,10.43
2023-03-25T03:25:07.626Z,10.63
2023-03-25T03:27:38.051Z,11.27
2023-03-25T03:30:09.043Z,12.43
2023-03-25T03:32:42.078Z,11.23
2023-03-25T03:35:11.511Z,10.83
2023-03-25T03:37:40.960Z,10.67
2023-03-25T03:40:13.832Z,10.13
2023-03-25T03:42:43.552Z,8.97
2023-03-25T03:45:13.151Z,9.27
2023-03-25T03:47:42.043Z,9.70
2023-03-25T03:50:12.140Z,9.47
2023-03-25T03:52:41.384Z,9.50
2023-03-25T03:55:14.196Z,10.03
2023-03-25T03:57:43.404Z,9.67
2023-03-25T04:00:15.165Z,11.00
2023-03-25T04:02:44.096Z,11.23
2023-03-25T04:05:13.230Z,11.20
2023-03-25T04:07:42.670Z,12.33
2023-03-25T04:10:15.104Z,12.90
2023-03-25T04:12:45.654Z,13.20
2023-03-25T04:15:13.811Z,13.20
2023-03-25T04:17:41.513Z,14.20
2023-03-25T04:20:11.557Z,14.87
2023-03-25T04:22:39.290Z,13.87
2023-03-25T04:25:07.197Z,13.70
2023-03-25T04:27:37.770Z,14.53
2023-03-25T04:30:06.359Z,15.23
2023-03-25T04:32:35.058Z,14.73
2023-03-25T04:35:03.543Z,15.07
2023-03-25T04:37:33.932Z,14.87
2023-03-25T04:40:01.628Z,14.23
2023-03-25T04:42:32.836Z,16.90
2023-03-25T04:45:02.593Z,13.53
2023-03-25T04:47:30.382Z,14.23
2023-03-25T04:49:58.129Z,14.87
2023-03-25T04:52:25.894Z,13.70
2023-03-25T04:54:53.584Z,16.60
2023-03-25T04:57:21.456Z,16.13
2023-03-25T04:59:49.110Z,13.63
2023-03-25T05:02:18.501Z,13.60
2023-03-25T05:04:47.862Z,13.73
2023-03-25T05:07:16.709Z,12.20
2023-03-25T05:09:44.539Z,14.03
2023-03-25T05:12:12.277Z,14.80
2023-03-25T05:14:39.995Z,13.17
2023-03-25T05:17:07.651Z,12.53
2023-03-25T05:19:36.711Z,13.03
2023-03-25T05:22:04.842Z,13.37
2023-03-25T05:24:32.540Z,14.27
2023-03-25T05:27:02.452Z,13.83
2023-03-25T05:29:34.156Z,14.27
2023-03-25T05:32:01.946Z,13.03
2023-03-25T05:34:31.185Z,14.43
2023-03-25T05:37:00.694Z,14.30
2023-03-25T05:39:28.484Z,15.10
2023-03-25T05:42:02.711Z,14.47
2023-03-25T05:44:30.344Z,14.33
2023-03-25T05:47:01.194Z,13.97
2023-03-25T05:49:29.857Z,11.77
2023-03-25T05:51:57.504Z,12.37
2023-03-25T05:54:26.573Z,12.87
2023-03-25T05:56:54.213Z,12.87
2023-03-25T05:59:21.877Z,11.73
2023-03-25T06:01:50.102Z,11.53
2023-03-25T06:04:17.812Z,11.27
2023-03-25T06:06:45.577Z,11.17
2023-03-25T06:09:13.294Z,10.80
2023-03-25T06:11:42.332Z,10.70
2023-03-25T06:14:10.001Z,11.77
2023-03-25T06:16:37.769Z,11.70
2023-03-25T06:19:05.408Z,12.00
2023-03-25T06:21:34.469Z,11.90
2023-03-25T06:24:02.450Z,11.73
2023-03-25T06:26:30.678Z,11.77
2023-03-25T06:28:59.700Z,11.50
2023-03-25T06:31:27.806Z,11.13
2023-03-25T06:33:56.361Z,11.43
2023-03-25T06:36:25.985Z,11.33
2023-03-25T06:38:54.271Z,10.30
2023-03-25T06:41:25.915Z,11.63
2023-03-25T06:43:53.702Z,11.77
2023-03-25T06:46:22.804Z,11.07
2023-03-25T06:48:50.567Z,12.07
2023-03-25T06:51:18.244Z,11.93
2023-03-25T06:53:45.907Z,12.17
2023-03-25T06:56:13.577Z,14.03
2023-03-25T06:58:41.856Z,12.77
2023-03-25T07:01:09.557Z,12.80
2023-03-25T07:03:38.831Z,12.47
2023-03-25T07:06:07.010Z,12.47
2023-03-25T07:08:34.859Z,13.20
2023-03-25T07:11:03.090Z,12.97
2023-03-25T07:13:31.384Z,12.63
2023-03-25T07:15:59.151Z,12.07
2023-03-25T07:18:26.994Z,10.93
2023-03-25T07:20:56.240Z,11.97
2023-03-25T07:23:23.929Z,11.70
2023-03-25T07:25:51.861Z,11.30
2023-03-25T07:28:19.731Z,10.93
2023-03-25T07:30:47.556Z,11.33
2023-03-25T07:33:15.204Z,11.13
2023-03-25T07:35:42.945Z,11.13
2023-03-25T07:38:12.022Z,10.47
2023-03-25T07:40:39.713Z,11.07
2023-03-25T07:43:07.627Z,10.87
2023-03-25T07:45:43.719Z,11.80
2023-03-25T07:48:23.054Z,12.67
2023-03-25T07:50:51.889Z,12.90
2023-03-25T07:53:23.634Z,10.97
2023-03-25T07:55:52.085Z,12.10
2023-03-25T07:58:20.441Z,12.63
2023-03-25T08:00:48.114Z,13.87
2023-03-25T08:03:16.114Z,12.93
2023-03-25T08:05:45.863Z,12.57
2023-03-25T08:08:13.718Z,12.47
2023-03-25T08:10:44.495Z,12.27
2023-03-25T08:13:12.619Z,11.40
2023-03-25T08:15:40.359Z,13.00
2023-03-25T08:18:08.105Z,14.07
2023-03-25T08:20:36.277Z,13.80
2023-03-25T08:23:04.336Z,13.27
2023-03-25T08:25:32.325Z,12.63
2023-03-25T08:28:01.313Z,12.67
2023-03-25T08:30:29.015Z,11.67
2023-03-25T08:32:56.731Z,12.23
2023-03-25T08:35:24.812Z,11.80
2023-03-25T08:37:52.495Z,13.43
2023-03-25T08:40:20.268Z,12.33
2023-03-25T08:42:47.946Z,12.30
2023-03-25T08:45:17.039Z,13.30
2023-03-25T08:47:45.857Z,11.77
2023-03-25T08:50:13.724Z,12.40
2023-03-25T08:52:42.114Z,11.30
2023-03-25T08:55:12.474Z,11.97
2023-03-25T08:57:40.350Z,11.50
2023-03-25T09:00:12.486Z,12.17
2023-03-25T09:02:42.167Z,11.33
2023-03-25T09:05:10.947Z,12.27
2023-03-25T09:07:39.144Z,12.53
2023-03-25T09:10:07.547Z,12.60
2023-03-25T09:12:35.249Z,12.03
2023-03-25T09:15:03.089Z,12.83
2023-03-25T09:17:30.738Z,13.10
2023-03-25T09:19:59.776Z,12.50
2023-03-25T09:22:27.506Z,13.27
2023-03-25T09:24:55.170Z,13.93
2023-03-25T09:27:22.831Z,12.60
2023-03-25T09:29:50.471Z,12.63
2023-03-25T09:32:18.757Z,13.50
2023-03-25T09:34:46.561Z,13.00
2023-03-25T09:37:15.641Z,13.23
2023-03-25T09:39:43.455Z,13.23
2023-03-25T09:42:21.648Z,13.77
2023-03-25T09:44:54.537Z,13.37
2023-03-25T09:47:23.353Z,13.20
2023-03-25T09:49:53.841Z,13.30
2023-03-25T09:52:30.630Z,14.73
2023-03-25T09:54:59.862Z,16.00
2023-03-25T09:57:30.733Z,15.30
2023-03-25T10:00:04.239Z,15.07
2023-03-25T10:02:39.358Z,15.40
2023-03-25T10:05:23.995Z,14.97
2023-03-25T10:08:09.415Z,17.17
2023-03-25T10:10:45.000Z,16.60
2023-03-25T10:13:16.991Z,17.23
2023-03-25T10:15:50.673Z,22.83
2023-03-25T10:18:35.881Z,28.50
2023-03-25T10:21:06.032Z,35.43
2023-03-25T10:23:35.944Z,37.77
2023-03-25T10:26:09.019Z,40.27
2023-03-25T10:28:39.217Z,41.53
2023-03-25T10:31:11.775Z,45.30
2023-03-25T10:33:41.731Z,39.93
2023-03-25T10:36:14.398Z,41.70
2023-03-25T10:38:43.786Z,38.97
2023-03-25T10:41:17.664Z,35.93
2023-03-25T10:43:45.521Z,37.83
2023-03-25T10:46:18.922Z,36.47
2023-03-25T10:48:47.105Z,34.53
2023-03-25T10:51:17.014Z,36.57
2023-03-25T10:53:47.407Z,34.13
2023-03-25T10:56:17.723Z,34.13
2023-03-25T10:58:47.981Z,35.10
2023-03-25T11:01:17.932Z,29.83
2023-03-25T11:03:47.141Z,31.70
2023-03-25T11:06:22.526Z,28.57
2023-03-25T11:09:00.143Z,29.93
2023-03-25T11:11:35.171Z,28.53
2023-03-25T11:14:03.649Z,28.10
2023-03-25T11:16:32.714Z,27.50
2023-03-25T11:19:02.487Z,29.50
2023-03-25T11:21:32.082Z,31.43
2023-03-25T11:24:01.189Z,34.67
2023-03-25T11:26:30.636Z,38.10
2023-03-25T11:29:02.714Z,38.07
2023-03-25T11:31:35.042Z,36.53
2023-03-25T11:34:06.026Z,37.90
2023-03-25T11:36:36.067Z,38.47
2023-03-25T11:39:05.447Z,36.23
2023-03-25T11:41:34.440Z,36.47
2023-03-25T11:44:04.193Z,37.07
2023-03-25T11:46:32.365Z,36.00
2023-03-25T11:49:08.975Z,39.00
2023-03-25T11:51:37.409Z,33.50
2023-03-25T11:54:07.322Z,30.90
2023-03-25T11:56:36.012Z,33.00
2023-03-25T11:59:08.877Z,30.23
2023-03-25T12:01:39.305Z,29.70
2023-03-25T12:04:08.786Z,28.03
2023-03-25T12:06:36.705Z,30.00
2023-03-25T12:09:08.797Z,27.27
2023-03-25T12:11:42.549Z,25.73
2023-03-25T12:14:21.761Z,22.40
2023-03-25T12:16:52.453Z,23.03
2023-03-25T12:19:25.845Z,22.50
2023-03-25T12:21:59.135Z,21.23
2023-03-25T12:24:36.924Z,19.53
2023-03-25T12:27:11.442Z,18.00
2023-03-25T12:29:45.811Z,18.57
2023-03-25T12:32:20.606Z,17.83
2023-03-25T12:34:55.028Z,15.03
2023-03-25T12:37:26.531Z,15.43
2023-03-25T12:40:03.741Z,12.23
2023-03-25T12:42:37.314Z,11.57
2023-03-25T12:45:21.409Z,10.43
2023-03-25T12:47:54.552Z,9.17
2023-03-25T12:50:32.301Z,7.63
2023-03-25T12:53:05.404Z,6.00
2023-03-25T12:55:44.803Z,5.80
2023-03-25T12:58:26.221Z,5.50
2023-03-25T13:00:58.842Z,6.13
2023-03-25T13:03:52.286Z,6.40
2023-03-25T13:06:23.743Z,6.20
2023-03-25T13:08:53.986Z,6.10
2023-03-25T13:11:37.364Z,5.47
2023-03-25T13:14:08.984Z,5.70
2023-03-25T13:16:40.117Z,5.47
2023-03-25T13:19:11.800Z,5.97
2023-03-25T13:21:41.967Z,5.53
2023-03-25T13:24:14.311Z,4.70
2023-03-25T13:26:44.714Z,4.97
2023-03-25T13:29:15.297Z,4.63
2023-03-25T13:31:47.083Z,5.30
2023-03-25T13:34:20.831Z,4.87
2023-03-25T13:36:52.077Z,5.70
2023-03-25T13:39:22.938Z,5.23
2023-03-25T13:41:53.645Z,5.53
2023-03-25T13:44:23.620Z,5.37
2023-03-25T13:46:55.453Z,5.60
2023-03-25T13:49:31.826Z,5.90
2023-03-25T13:52:19.189Z,6.07
2023-03-25T13:54:56.441Z,6.03
2023-03-25T13:57:33.422Z,6.77
2023-03-25T14:00:30.264Z,7.57
2023-03-25T14:03:13.057Z,7.20
2023-03-25T14:05:52.811Z,6.47
2023-03-25T14:08:50.890Z,7.73
2023-03-25T14:11:22.332Z,7.57
2023-03-25T14:13:54.208Z,7.57
2023-03-25T14:16:26.135Z,7.17
2023-03-25T14:18:59.946Z,7.27
2023-03-25T14:21:35.081Z,7.47
2023-03-25T14:24:45.288Z,7.20
2023-03-25T14:56:16.768Z,6.20
2023-03-25T14:59:00.844Z,5.33
2023-03-25T15:01:34.765Z,4.87
2023-03-25T15:04:12.147Z,4.97
2023-03-25T15:06:41.047Z,4.40
2023-03-25T15:09:12.709Z,4.40
2023-03-25T15:11:43.111Z,4.17
2023-03-25T15:14:14.691Z,4.20
2023-03-25T15:16:57.728Z,4.37
2023-03-25T15:19:25.683Z,4.10
2023-03-25T15:22:11.296Z,4.10
2023-03-25T15:24:41.959Z,4.00
2023-03-25T15:30:24.995Z,4.23
2023-03-25T15:32:59.077Z,4.40
2023-03-25T15:35:38.622Z,4.63
2023-03-25T15:38:21.362Z,4.70
2023-03-25T15:41:03.396Z,4.47
2023-03-25T15:44:01.159Z,4.20
2023-03-25T15:46:57.964Z,4.30
2023-03-25T15:56:40.467Z,5.20
2023-03-25T15:59:13.896Z,4.90
2023-03-25T16:01:44.447Z,5.30
2023-03-25T16:04:18.763Z,5.20
2023-03-25T16:06:50.917Z,5.27
2023-03-25T16:09:20.655Z,5.93
2023-03-25T16:11:49.876Z,7.17
2023-03-25T16:14:18.703Z,7.13
2023-03-25T16:16:47.940Z,7.53
2023-03-25T16:19:17.721Z,8.60
2023-03-25T16:21:48.499Z,8.67
2023-03-25T16:24:16.383Z,9.23
2023-03-25T16:26:45.984Z,8.57
2023-03-25T16:29:22.516Z,8.73
2023-03-25T16:31:54.636Z,10.23
2023-03-25T16:34:22.967Z,11.93
2023-03-25T16:36:53.130Z,14.20
2023-03-25T16:39:21.504Z,18.63
2023-03-25T16:41:50.137Z,21.23
2023-03-25T16:44:20.542Z,24.17
2023-03-25T16:46:50.412Z,25.83
2023-03-25T16:49:22.106Z,27.43
2023-03-25T16:51:51.826Z,28.20
2023-03-25T16:54:28.392Z,28.30
2023-03-25T16:56:56.731Z,29.50
2023-03-25T16:59:27.037Z,27.37
2023-03-25T17:01:57.513Z,26.77
2023-03-25T17:04:27.202Z,24.27
2023-03-25T17:06:57.022Z,23.93
2023-03-25T17:09:26.611Z,25.17
2023-03-25T17:11:56.892Z,22.50
2023-03-25T17:14:28.507Z,21.07
2023-03-25T17:16:57.957Z,20.10
2023-03-25T17:19:27.776Z,20.00
2023-03-25T17:22:16.701Z,20.27
2023-03-25T17:24:45.105Z,17.23
2023-03-25T17:27:21.685Z,17.23
2023-03-25T17:29:53.860Z,19.10
2023-03-25T17:32:23.767Z,19.90
2023-03-25T17:35:04.623Z,19.30
2023-03-25T17:37:33.177Z,16.87
2023-03-25T17:40:04.745Z,17.73
2023-03-25T17:42:33.306Z,16.00
2023-03-25T17:45:01.167Z,16.27
2023-03-25T17:47:30.472Z,17.03
2023-03-25T17:49:59.323Z,17.77
2023-03-25T17:52:29.548Z,17.00
2023-03-25T17:54:59.323Z,17.00
2023-03-25T17:57:27.418Z,16.87
2023-03-25T17:59:55.863Z,16.13
2023-03-25T18:02:23.774Z,16.17
2023-03-25T18:04:53.139Z,16.43
2023-03-25T18:07:21.671Z,17.33
2023-03-25T18:09:49.467Z,17.60
2023-03-25T18:12:17.303Z,18.37
2023-03-25T18:14:45.126Z,16.50
2023-03-25T18:17:13.623Z,19.30
2023-03-25T18:19:41.997Z,20.20
2023-03-25T18:22:19.745Z,19.73
2023-03-25T18:24:48.265Z,18.97
2023-03-25T18:27:16.544Z,17.83
2023-03-25T18:29:44.551Z,16.47
2023-03-25T18:32:12.298Z,18.43
2023-03-25T18:34:40.140Z,18.20
2023-03-25T18:37:08.626Z,17.23
2023-03-25T18:39:38.014Z,16.37
2023-03-25T18:42:06.218Z,16.23
2023-03-25T18:44:34.047Z,17.37
2023-03-25T18:47:03.780Z,14.23
2023-03-25T18:49:32.008Z,16.10
2023-03-25T18:51:59.843Z,17.07
2023-03-25T18:54:27.560Z,15.20
2023-03-25T18:56:56.958Z,15.73
2023-03-25T18:59:24.886Z,14.87
2023-03-25T19:01:52.700Z,17.03
2023-03-25T19:04:20.466Z,14.37
2023-03-25T19:06:48.403Z,15.63
2023-03-25T19:09:18.471Z,14.93
2023-03-25T19:11:47.235Z,14.50
2023-03-25T19:14:16.362Z,14.10
2023-03-25T19:16:57.202Z,13.97
2023-03-25T19:19:31.254Z,14.83
2023-03-25T19:21:59.005Z,15.30
2023-03-25T19:24:26.851Z,15.03
2023-03-25T19:26:54.618Z,15.53
2023-03-25T19:29:23.764Z,15.10
2023-03-25T19:31:51.502Z,15.70
2023-03-25T19:34:22.397Z,15.57
2023-03-25T19:36:50.187Z,14.13
2023-03-25T19:39:18.783Z,15.10
2023-03-25T19:41:47.174Z,14.60
2023-03-25T19:44:15.014Z,13.37
2023-03-25T19:46:44.197Z,14.40
2023-03-25T19:49:11.923Z,13.80
2023-03-25T19:51:43.146Z,14.13
2023-03-25T19:54:13.745Z,15.17
2023-03-25T19:56:41.893Z,14.60
2023-03-25T19:59:09.965Z,14.10
2023-03-25T20:01:37.700Z,14.93
2023-03-25T20:04:07.257Z,15.13
2023-03-25T20:06:39.323Z,14.33
2023-03-25T20:09:10.845Z,16.03
2023-03-25T20:11:38.844Z,15.40
2023-03-25T20:14:07.063Z,16.23
2023-03-25T20:16:35.506Z,15.87
2023-03-25T20:19:03.421Z,15.87
2023-03-25T20:21:36.098Z,15.20
2023-03-25T20:24:04.533Z,16.37
2023-03-25T20:26:33.241Z,15.03
2023-03-25T20:29:01.182Z,17.03
2023-03-25T20:31:29.125Z,16.23
2023-03-25T20:33:57.017Z,14.93
2023-03-25T20:36:24.801Z,14.87
2023-03-25T20:38:57.664Z,15.03
2023-03-25T20:41:26.083Z,14.37
2023-03-25T20:43:53.819Z,15.00
2023-03-25T20:46:24.012Z,15.43
2023-03-25T20:48:52.256Z,14.27
2023-03-25T20:51:20.183Z,15.33
2023-03-25T20:53:48.669Z,15.73
2023-03-25T20:56:18.805Z,16.67
2023-03-25T20:58:46.839Z,16.03
2023-03-25T21:01:15.577Z,17.07
2023-03-25T21:03:43.911Z,16.30
2023-03-25T21:06:22.976Z,16.23
2023-03-25T21:08:51.776Z,15.57
2023-03-25T21:11:21.140Z,16.03
2023-03-25T21:13:48.899Z,16.97
2023-03-25T21:16:17.639Z,16.67
2023-03-25T21:18:45.506Z,18.17
2023-03-25T21:21:19.566Z,16.83
2023-03-25T21:23:48.482Z,16.93
2023-03-25T21:29:02.093Z,17.03
2023-03-25T21:31:30.379Z,17.13
2023-03-25T21:33:59.053Z,16.50
2023-03-25T21:36:27.795Z,17.30
2023-03-25T21:38:56.556Z,17.20
2023-03-25T21:41:24.324Z,16.23
2023-03-25T21:43:53.339Z,17.87
2023-03-25T21:46:24.521Z,17.20
2023-03-25T21:48:52.367Z,16.97
2023-03-25T21:51:21.445Z,17.37
2023-03-25T21:53:50.348Z,18.17
2023-03-25T21:56:19.565Z,16.87
2023-03-25T21:58:48.181Z,17.03
2023-03-25T22:01:17.803Z,16.97
2023-03-25T22:03:47.222Z,17.53
2023-03-25T22:06:16.007Z,15.07
2023-03-25T22:08:43.792Z,15.60
2023-03-25T22:11:12.544Z,17.50
2023-03-25T22:13:41.203Z,16.50
2023-03-25T22:16:09.622Z,15.03
2023-03-25T22:18:37.797Z,15.80
2023-03-25T22:21:11.755Z,13.93
2023-03-25T22:23:40.428Z,15.87
2023-03-25T22:26:08.887Z,14.77
2023-03-25T22:28:36.635Z,15.60
2023-03-25T22:31:09.153Z,16.77
2023-03-25T22:33:36.880Z,16.03
2023-03-25T22:36:06.758Z,15.40
2023-03-25T22:38:35.934Z,15.23
2023-03-25T22:41:04.230Z,15.77
2023-03-25T22:43:32.716Z,16.23
2023-03-25T22:46:02.650Z,15.07
2023-03-25T22:48:31.051Z,16.10
2023-03-25T22:50:58.690Z,16.13
2023-03-25T22:53:26.897Z,16.90
2023-03-25T22:55:58.129Z,17.07
2023-03-25T22:58:27.344Z,15.40
2023-03-25T23:00:55.829Z,17.73
2023-03-25T23:03:24.232Z,17.73
2023-03-25T23:05:56.067Z,19.40
2023-03-25T23:08:26.062Z,18.77
2023-03-25T23:10:53.853Z,21.07
2023-03-25T23:13:23.319Z,20.40
2023-03-25T23:15:51.131Z,21.07
2023-03-25T23:18:18.870Z,21.17
2023-03-25T23:20:49.676Z,22.13
2023-03-25T23:23:17.684Z,20.43
2023-03-25T23:25:45.354Z,21.80
2023-03-25T23:28:18.318Z,22.37
2023-03-25T23:30:47.424Z,22.87
2023-03-25T23:33:15.084Z,20.27
2023-03-25T23:35:42.768Z,22.47
2023-03-25T23:38:10.470Z,24.73
2023-03-25T23:40:38.195Z,22.10
2023-03-25T23:43:06.062Z,21.73
2023-03-25T23:45:33.979Z,23.03
2023-03-25T23:48:03.076Z,23.57
2023-03-25T23:50:30.781Z,21.57
2023-03-25T23:53:01.595Z,23.60
2023-03-25T23:55:29.327Z,24.30
2023-03-25T23:57:57.060Z,23.43
